Time;durP1;ratioP1;P1;durP2;ratioP2;P2;SDS_P1;SDS_P2;PMS_P1;PMS_P2;Temp;Humidity;BMP_temperature;BMP_pressure;BME280_temperature;BME280_humidity;BME280_pressure;Samples;Min_cycle;Max_cycle;Signal;HPM_P1;HPM_P2
2021/07/01 00:02:03;;;;;;;15.05;9.38;;;;;;;20.59;71.81;96113.59;5115110;28;20039;-64
2021/07/01 00:04:29;;;;;;;13.73;9.77;;;;;;;20.60;72.06;96112.59;5115018;28;20050;-65
2021/07/01 00:06:55;;;;;;;18.38;10.43;;;;;;;20.54;71.85;96116.63;5114902;28;20023;-61
2021/07/01 00:09:23;;;;;;;11.73;8.73;;;;;;;20.51;71.89;96119.56;5114773;28;20035;-63
2021/07/01 00:11:50;;;;;;;14.77;11.60;;;;;;;20.51;72.36;96124.84;5114746;28;20058;-62
2021/07/01 00:14:18;;;;;;;10.35;8.90;;;;;;;20.53;72.07;96122.06;5114451;28;20550;-60
2021/07/01 00:16:46;;;;;;;12.52;10.18;;;;;;;20.53;71.71;96119.41;5114709;28;20031;-62
2021/07/01 00:19:11;;;;;;;9.70;8.45;;;;;;;20.50;72.11;96109.88;5114826;28;20063;-64
2021/07/01 00:21:37;;;;;;;11.35;10.15;;;;;;;20.49;71.85;96116.16;5114639;28;20055;-61
2021/07/01 00:24:02;;;;;;;12.60;8.50;;;;;;;20.45;71.82;96114.75;5114666;28;20430;-61
2021/07/01 00:26:28;;;;;;;13.23;10.35;;;;;;;20.32;72.12;96109.66;5114365;28;20035;-62
2021/07/01 00:28:54;;;;;;;12.40;9.50;;;;;;;20.32;72.11;96109.66;5114465;28;20031;-63
2021/07/01 00:31:20;;;;;;;13.25;9.57;;;;;;;20.24;72.79;96107.63;5114432;28;20447;-63
2021/07/01 00:33:46;;;;;;;15.88;9.35;;;;;;;20.23;73.04;96105.13;5114334;28;20369;-61
2021/07/01 00:36:11;;;;;;;10.98;9.88;;;;;;;20.31;72.89;96099.97;5114400;28;20031;-63
2021/07/01 00:38:37;;;;;;;11.07;9.00;;;;;;;20.29;72.30;96096.63;5114376;28;20020;-62
2021/07/01 00:41:02;;;;;;;15.82;11.30;;;;;;;20.25;72.81;96092.53;5114348;28;20020;-62
2021/07/01 00:43:28;;;;;;;12.70;8.90;;;;;;;20.27;72.54;96087.94;5114129;28;20465;-61
2021/07/01 00:45:54;;;;;;;12.10;9.05;;;;;;;20.25;72.42;96084.56;5113998;28;20033;-63
2021/07/01 00:48:19;;;;;;;13.98;8.85;;;;;;;20.17;72.71;96085.25;5114227;28;20100;-62
2021/07/01 00:50:45;;;;;;;13.70;10.38;;;;;;;20.16;72.71;96079.06;5114131;28;20497;-64
2021/07/01 00:53:11;;;;;;;14.32;9.90;;;;;;;20.19;72.74;96084.13;5114021;28;20028;-63
2021/07/01 00:55:37;;;;;;;9.90;8.90;;;;;;;20.24;72.25;96083.75;5114009;28;20015;-67
2021/07/01 00:58:04;;;;;;;13.15;9.63;;;;;;;20.18;72.23;96094.88;5113960;28;20031;-63
2021/07/01 01:03:08;;;;;;;25.40;10.40;;;;;;;20.06;72.39;96086.97;5114114;28;20028;-63
2021/07/01 01:05:34;;;;;;;14.63;9.25;;;;;;;20.04;72.95;96088.06;5112979;28;20024;-62
2021/07/01 01:08:00;;;;;;;13.50;9.93;;;;;;;20.06;73.04;96086.97;5113737;28;20471;-63
2021/07/01 01:10:25;;;;;;;13.07;8.43;;;;;;;20.04;72.40;96088.91;5113758;28;20030;-62
2021/07/01 01:12:51;;;;;;;11.48;10.00;;;;;;;19.98;73.01;96086.75;5113693;28;20016;-66
2021/07/01 01:15:16;;;;;;;14.00;10.90;;;;;;;20.00;72.96;96089.25;5113377;28;20114;-67
2021/07/01 01:17:44;;;;;;;11.80;9.38;;;;;;;19.92;73.00;96080.13;5113657;28;20107;-63
2021/07/01 01:20:10;;;;;;;15.10;10.80;;;;;;;19.87;73.02;96084.97;5113621;28;20024;-62
2021/07/01 01:22:36;;;;;;;13.25;9.77;;;;;;;19.87;73.24;96081.50;5113756;28;20420;-64
2021/07/01 01:25:02;;;;;;;15.95;10.05;;;;;;;19.87;73.02;96082.31;5113568;28;20019;-66
2021/07/01 01:27:28;;;;;;;13.35;9.38;;;;;;;19.83;72.79;96081.75;5113406;28;20027;-61
2021/07/01 01:29:54;;;;;;;12.73;9.95;;;;;;;19.77;73.36;96081.41;5113508;28;20065;-64
2021/07/01 01:32:19;;;;;;;18.10;10.15;;;;;;;19.75;72.96;96076.22;5113388;28;20026;-62
2021/07/01 01:34:45;;;;;;;16.40;11.13;;;;;;;19.74;73.11;96079.03;5113494;28;20016;-66
2021/07/01 01:37:10;;;;;;;10.90;9.15;;;;;;;19.70;73.24;96071.31;5113500;28;20350;-65
2021/07/01 01:39:36;;;;;;;11.07;9.95;;;;;;;19.69;73.31;96072.28;5113450;28;20086;-65
2021/07/01 01:42:02;;;;;;;17.02;9.82;;;;;;;19.74;73.19;96069.22;5113497;28;20055;-62
2021/07/01 01:44:28;;;;;;;14.82;10.35;;;;;;;19.64;73.13;96077.13;5113442;28;20374;-63
2021/07/01 01:46:54;;;;;;;13.32;10.02;;;;;;;19.62;73.72;96083.53;5113297;28;20122;-65
2021/07/01 01:49:20;;;;;;;13.50;10.38;;;;;;;19.64;73.15;96071.81;5113407;28;20027;-64
2021/07/01 01:51:46;;;;;;;15.27;11.05;;;;;;;19.59;73.23;96073.19;5113413;28;20431;-62
2021/07/01 01:54:12;;;;;;;13.02;10.57;;;;;;;19.59;73.60;96070.53;5113356;28;20020;-63
2021/07/01 01:56:45;;;;;;;14.90;9.35;;;;;;;19.60;73.67;96074.84;5113265;28;20016;-63
2021/07/01 01:59:11;;;;;;;12.00;10.82;;;;;;;19.55;74.18;96076.06;5113343;28;20036;-64
2021/07/01 02:01:37;;;;;;;14.70;10.82;;;;;;;19.59;74.16;96067.88;5113260;28;20373;-61
2021/07/01 02:04:03;;;;;;;14.50;10.32;;;;;;;19.53;74.33;96071.84;5095074;28;20027;-64
2021/07/01 02:06:28;;;;;;;17.25;11.27;;;;;;;19.53;74.04;96066.53;5113367;28;20106;-61
2021/07/01 02:08:54;;;;;;;15.57;9.65;;;;;;;19.43;74.47;96069.13;5113129;28;20486;-66
2021/07/01 02:11:20;;;;;;;13.95;10.32;;;;;;;19.46;74.14;96068.88;5113231;28;20028;-65
2021/07/01 02:13:45;;;;;;;9.65;8.65;;;;;;;19.44;74.44;96065.47;5113308;28;20354;-65
2021/07/01 02:16:11;;;;;;;12.15;10.35;;;;;;;19.41;74.61;96071.03;5114715;28;20101;-66
2021/07/01 02:18:37;;;;;;;12.13;9.13;;;;;;;19.47;74.52;96075.03;5117005;28;20027;-65
2021/07/01 02:21:04;;;;;;;17.55;11.43;;;;;;;19.45;74.02;96075.97;5116968;28;20024;-64
2021/07/01 02:23:30;;;;;;;11.50;10.02;;;;;;;19.40;74.13;96072.00;5117086;28;20389;-64
2021/07/01 02:25:56;;;;;;;16.90;11.93;;;;;;;19.38;74.61;96082.75;5116823;28;20028;-65
2021/07/01 02:28:21;;;;;;;14.35;10.55;;;;;;;19.44;74.75;96071.66;5116834;28;20045;-65
2021/07/01 02:30:47;;;;;;;16.10;11.27;;;;;;;19.50;74.10;96083.56;5116839;28;20015;-66
2021/07/01 02:33:12;;;;;;;10.18;9.07;;;;;;;19.52;73.88;96088.72;5116786;28;20354;-64
2021/07/01 02:35:38;;;;;;;16.33;10.25;;;;;;;19.52;74.00;96094.88;5116886;28;20030;-66
2021/07/01 02:38:03;;;;;;;11.90;9.63;;;;;;;19.55;74.19;96099.94;5116801;28;20024;-64
2021/07/01 02:40:29;;;;;;;13.18;10.07;;;;;;;19.53;74.05;96095.72;5116590;28;20022;-67
2021/07/01 02:42:55;;;;;;;10.88;8.90;;;;;;;19.49;73.68;96088.97;5116525;28;20027;-60
2021/07/01 02:45:20;;;;;;;11.73;9.20;;;;;;;19.47;74.08;96099.72;5116464;28;20024;-65
2021/07/01 02:47:46;;;;;;;12.77;10.45;;;;;;;19.47;73.93;96093.59;5116488;28;20023;-63
2021/07/01 02:50:12;;;;;;;10.75;9.38;;;;;;;19.49;74.44;96094.28;5116418;28;20026;-67
2021/07/01 02:52:38;;;;;;;12.05;10.45;;;;;;;19.51;74.40;96098.50;5116462;28;20032;-66
2021/07/01 02:55:06;;;;;;;17.13;10.27;;;;;;;19.54;74.30;96094.75;5116231;28;20528;-63
2021/07/01 02:57:31;;;;;;;19.33;10.50;;;;;;;19.52;74.01;96107.28;5116468;28;20027;-64
2021/07/01 02:59:57;;;;;;;15.10;8.75;;;;;;;19.55;74.29;96107.91;5116334;28;20080;-65
2021/07/01 03:02:23;;;;;;;12.43;10.38;;;;;;;19.57;73.85;96107.78;5116354;28;20059;-66
2021/07/01 03:04:48;;;;;;;11.90;9.27;;;;;;;19.53;73.76;96117.78;5116210;28;20035;-61
2021/07/01 03:07:14;;;;;;;15.65;10.48;;;;;;;19.55;73.88;96113.22;5116063;28;20026;-61
2021/07/01 03:09:39;;;;;;;15.05;9.55;;;;;;;19.50;74.37;96106.59;5115993;28;20024;-64
2021/07/01 03:12:05;;;;;;;10.35;9.25;;;;;;;19.57;74.31;96103.28;5115914;28;20023;-64
2021/07/01 03:14:31;;;;;;;11.38;9.60;;;;;;;19.67;73.87;96105.19;5115718;28;20047;-63
2021/07/01 03:16:57;;;;;;;9.18;8.27;;;;;;;19.75;73.65;96110.72;5116035;28;20385;-64
2021/07/01 03:19:22;;;;;;;12.55;9.43;;;;;;;19.79;73.55;96104.19;5115764;28;20059;-64
2021/07/01 03:21:49;;;;;;;9.00;8.10;;;;;;;19.82;73.19;96117.22;5115865;28;20039;-61
2021/07/01 03:24:15;;;;;;;15.90;9.02;;;;;;;19.87;72.75;96113.34;5115845;28;20097;-65
2021/07/01 03:26:40;;;;;;;10.80;7.85;;;;;;;19.92;72.46;96105.81;5115397;28;20489;-62
2021/07/01 03:29:07;;;;;;;11.27;8.43;;;;;;;19.95;72.52;96103.75;5115295;28;20023;-64
2021/07/01 03:31:33;;;;;;;11.80;7.90;;;;;;;20.03;72.51;96105.81;5115568;28;20032;-66
2021/07/01 03:33:59;;;;;;;9.40;8.45;;;;;;;20.15;72.59;96109.25;5115680;28;20061;-63
2021/07/01 03:36:24;;;;;;;10.65;7.88;;;;;;;20.28;72.18;96116.16;5115616;28;20035;-65
2021/07/01 03:38:50;;;;;;;11.32;7.18;;;;;;;20.44;72.17;96113.91;5115579;28;20054;-63
2021/07/01 03:41:16;;;;;;;12.52;7.47;;;;;;;20.60;71.73;96117.91;5115392;28;20019;-64
2021/07/01 03:43:45;;;;;;;9.80;7.32;;;;;;;20.75;70.77;96118.41;5115493;28;20060;-61
2021/07/01 03:46:13;;;;;;;7.95;6.72;;;;;;;20.93;70.71;96124.00;5115352;28;20015;-64
2021/07/01 03:48:39;;;;;;;10.88;8.07;;;;;;;21.11;70.31;96122.50;5115299;28;20016;-61
2021/07/01 03:51:06;;;;;;;9.02;7.47;;;;;;;21.25;70.24;96116.78;5115258;28;20035;-68
2021/07/01 03:53:32;;;;;;;9.23;7.72;;;;;;;21.44;69.78;96117.84;5115160;28;20119;-64
2021/07/01 04:08:38;;;;;;;9.55;6.72;;;;;;;23.45;64.42;96127.94;5103678;27;1412064;-65
2021/07/01 04:11:07;;;;;;;7.38;6.68;;;;;;;23.62;63.45;96130.78;5131231;28;20039;-63
2021/07/01 04:13:32;;;;;;;10.82;6.40;;;;;;;23.72;63.75;96131.56;5131265;28;20111;-65
2021/07/01 04:15:58;;;;;;;9.13;6.28;;;;;;;23.91;63.43;96133.25;5131093;28;20051;-65
2021/07/01 04:18:24;;;;;;;8.30;5.97;;;;;;;24.15;63.22;96139.00;5131253;28;20031;-64
2021/07/01 04:20:49;;;;;;;9.98;5.95;;;;;;;24.34;62.38;96128.13;5131200;28;20051;-65
2021/07/01 04:23:15;;;;;;;6.13;5.53;;;;;;;24.51;62.07;96130.09;5131030;28;20392;-63
2021/07/01 04:25:40;;;;;;;7.90;5.53;;;;;;;24.70;61.46;96124.53;5131112;28;20015;-67
2021/07/01 04:28:07;;;;;;;11.93;6.35;;;;;;;24.94;61.04;96125.72;5130937;28;20110;-65
2021/07/01 04:30:32;;;;;;;6.75;6.00;;;;;;;25.14;60.40;96133.50;5130988;28;20039;-64
2021/07/01 04:32:58;;;;;;;6.93;6.18;;;;;;;25.37;60.05;96119.53;5130959;28;20016;-63
2021/07/01 04:35:23;;;;;;;8.40;6.30;;;;;;;25.61;58.68;96108.09;5130824;28;20015;-65
2021/07/01 04:37:49;;;;;;;9.48;6.07;;;;;;;25.88;58.24;96109.81;5130685;28;20096;-63
2021/07/01 04:40:14;;;;;;;10.02;6.30;;;;;;;26.10;58.42;96109.13;5130716;28;20032;-62
2021/07/01 04:42:40;;;;;;;13.45;5.70;;;;;;;26.40;57.96;96115.88;5130806;28;20019;-64
2021/07/01 04:45:08;;;;;;;6.95;5.43;;;;;;;26.74;58.09;96117.50;5130671;28;20027;-62
2021/07/01 04:47:34;;;;;;;7.82;5.50;;;;;;;27.06;57.35;96120.31;5130534;28;20480;-62
2021/07/01 04:50:02;;;;;;;6.97;6.03;;;;;;;27.32;56.76;96124.56;5130476;28;20503;-67
2021/07/01 04:52:28;;;;;;;8.32;6.18;;;;;;;27.62;54.58;96122.06;5130466;28;20031;-63
2021/07/01 04:54:53;;;;;;;6.70;5.75;;;;;;;27.86;54.45;96117.56;5130444;28;20019;-65
2021/07/01 04:57:19;;;;;;;8.82;6.28;;;;;;;28.09;54.43;96111.38;5130224;28;20108;-65
2021/07/01 04:59:44;;;;;;;7.85;6.22;;;;;;;28.31;54.95;96120.47;5130484;28;20020;-62
2021/07/01 05:02:10;;;;;;;10.98;6.28;;;;;;;28.60;54.08;96115.34;5130339;28;20152;-66
2021/07/01 05:04:35;;;;;;;10.40;6.55;;;;;;;28.81;53.71;96113.78;5130261;28;20114;-63
2021/07/01 05:07:01;;;;;;;7.38;6.68;;;;;;;29.07;53.00;96117.91;5129961;28;20047;-64
2021/07/01 05:09:26;;;;;;;12.00;7.20;;;;;;;29.10;52.59;96117.53;5117484;28;20035;-64
2021/07/01 05:11:52;;;;;;;8.75;6.70;;;;;;;29.20;52.63;96112.69;5116474;28;20027;-63
2021/07/01 05:14:17;;;;;;;11.38;6.90;;;;;;;29.40;51.93;96114.81;5116431;28;20024;-63
2021/07/01 05:16:43;;;;;;;7.00;6.30;;;;;;;29.44;51.35;96123.34;5116318;28;20076;-63
2021/07/01 05:19:08;;;;;;;11.13;7.47;;;;;;;29.52;51.33;96116.00;5116294;28;20065;-65
2021/07/01 05:21:34;;;;;;;10.30;7.63;;;;;;;29.60;51.67;96112.41;5116282;28;20072;-64
2021/07/01 05:24:00;;;;;;;8.70;7.78;;;;;;;29.95;50.80;96118.97;5116185;28;20032;-66
2021/07/01 05:26:25;;;;;;;8.57;7.55;;;;;;;30.14;49.91;96104.00;5098044;28;20050;-64
2021/07/01 05:28:51;;;;;;;10.80;7.25;;;;;;;30.40;49.53;96110.72;5116266;28;20012;-61
2021/07/01 05:31:17;;;;;;;11.57;7.78;;;;;;;30.67;49.98;96105.50;5116194;28;20468;-67
2021/07/01 05:33:42;;;;;;;8.65;6.95;;;;;;;30.67;48.50;96108.19;5116125;28;20095;-66
2021/07/01 05:36:09;;;;;;;7.35;6.75;;;;;;;30.90;48.92;96112.53;5115848;28;20015;-65
2021/07/01 05:38:34;;;;;;;11.70;6.40;;;;;;;31.01;47.13;96119.25;5116060;28;20020;-64
2021/07/01 05:41:00;;;;;;;9.88;6.10;;;;;;;31.04;47.07;96116.16;5115860;28;20496;-62
2021/07/01 05:43:26;;;;;;;8.82;6.13;;;;;;;31.21;48.65;96115.81;5115897;28;20020;-65
2021/07/01 05:45:52;;;;;;;7.32;6.43;;;;;;;31.39;48.21;96115.28;5115753;28;20426;-64
2021/07/01 05:48:18;;;;;;;9.05;7.22;;;;;;;31.61;48.04;96112.47;5115855;28;20035;-64
2021/07/01 05:50:50;;;;;;;7.28;6.50;;;;;;;31.87;48.77;96116.28;5115658;28;20091;-67
2021/07/01 05:53:25;;;;;;;8.73;6.95;;;;;;;32.06;48.24;96105.75;5115729;28;20035;-64
2021/07/01 05:55:51;;;;;;;10.48;6.90;;;;;;;32.13;46.73;96104.72;5115793;28;20028;-64
2021/07/01 05:58:17;;;;;;;7.50;5.97;;;;;;;32.08;45.34;96100.97;5115561;28;20026;-67
2021/07/01 06:00:42;;;;;;;9.25;6.38;;;;;;;32.29;45.63;96091.81;5115612;28;20028;-64
2021/07/01 06:03:09;;;;;;;11.73;5.90;;;;;;;32.58;43.87;96106.00;5115483;28;20016;-67
2021/07/01 06:05:37;;;;;;;7.28;6.28;;;;;;;32.84;43.50;96106.19;5115521;28;20023;-64
2021/07/01 06:08:05;;;;;;;9.90;6.97;;;;;;;32.97;43.99;96100.75;5115078;28;20144;-63
2021/07/01 06:10:32;;;;;;;8.70;5.93;;;;;;;33.02;43.31;96100.09;5115317;28;20115;-63
2021/07/01 06:12:59;;;;;;;6.93;5.45;;;;;;;33.25;43.50;96101.50;5115210;28;20026;-67
2021/07/01 06:15:25;;;;;;;7.28;6.53;;;;;;;33.34;43.20;96096.69;5115158;28;20023;-63
2021/07/01 06:17:51;;;;;;;6.75;6.13;;;;;;;33.47;42.75;96095.81;5115109;28;20369;-66
2021/07/01 06:20:17;;;;;;;13.35;6.60;;;;;;;33.71;41.26;96088.00;5114131;28;20026;-64
2021/07/01 06:22:45;;;;;;;7.05;6.35;;;;;;;33.89;40.83;96095.41;5114993;28;20103;-62
2021/07/01 06:25:11;;;;;;;7.03;6.35;;;;;;;34.09;41.79;96100.69;5115120;28;20500;-66
2021/07/01 06:27:38;;;;;;;11.95;6.47;;;;;;;34.27;41.42;96110.81;5114963;28;20028;-64
2021/07/01 06:30:16;;;;;;;9.32;6.78;;;;;;;34.33;41.08;96119.94;5115017;28;20062;-67
2021/07/01 06:32:45;;;;;;;7.82;6.50;;;;;;;34.51;40.57;96112.91;5114809;28;20089;-68
2021/07/01 06:35:22;;;;;;;7.50;6.57;;;;;;;34.45;41.22;96108.38;5114838;28;20077;-63
2021/07/01 06:37:49;;;;;;;7.88;5.95;;;;;;;34.52;41.80;96111.88;5114711;28;20027;-67
2021/07/01 06:40:15;;;;;;;11.68;6.75;;;;;;;34.62;41.86;96109.50;5114937;28;20073;-66
2021/07/01 06:42:55;;;;;;;7.97;7.18;;;;;;;34.76;41.35;96096.66;5114684;28;20362;-64
2021/07/01 06:45:21;;;;;;;9.02;8.05;;;;;;;34.80;41.86;96110.63;5114548;28;20024;-64
2021/07/01 06:47:48;;;;;;;13.25;7.90;;;;;;;34.86;41.53;96107.00;5114686;28;20085;-69
2021/07/01 06:50:16;;;;;;;10.50;7.65;;;;;;;35.04;39.90;96106.16;5114413;28;20031;-67
2021/07/01 06:52:44;;;;;;;9.88;7.90;;;;;;;35.10;39.69;96106.34;5114386;28;20035;-66
2021/07/01 06:55:11;;;;;;;11.98;7.57;;;;;;;35.18;39.02;96108.75;5114431;28;20111;-64
2021/07/01 06:57:37;;;;;;;8.98;7.43;;;;;;;35.20;39.72;96097.69;5114216;28;20028;-61
2021/07/01 07:00:09;;;;;;;12.75;7.80;;;;;;;35.06;40.06;96100.50;5114322;28;20102;-64
2021/07/01 07:02:36;;;;;;;13.93;8.70;;;;;;;34.96;39.51;96100.19;5114345;28;20080;-65
2021/07/01 07:05:06;;;;;;;10.30;9.30;;;;;;;34.78;38.64;96097.25;5114310;28;20488;-67
2021/07/01 07:07:32;;;;;;;11.73;8.48;;;;;;;34.54;40.27;96101.63;5114046;28;20045;-69
2021/07/01 07:10:03;;;;;;;8.93;7.82;;;;;;;34.63;41.54;96097.56;5114148;28;20058;-65
2021/07/01 07:12:28;;;;;;;13.88;8.32;;;;;;;34.74;40.99;96096.06;5114250;28;20095;-66
2021/07/01 07:14:54;;;;;;;16.23;8.35;;;;;;;34.91;41.99;96096.28;5114005;28;20041;-64
2021/07/01 07:17:28;;;;;;;11.50;8.98;;;;;;;35.09;41.13;96096.53;5113967;28;20031;-66
2021/07/01 07:20:00;;;;;;;10.20;9.15;;;;;;;35.18;40.29;96095.19;5114090;28;20027;-66
2021/07/01 07:22:29;;;;;;;10.45;8.48;;;;;;;35.42;41.37;96087.16;5113996;28;20043;-66
2021/07/01 07:25:00;;;;;;;15.68;9.35;;;;;;;35.51;41.55;96093.13;5113998;28;20024;-67
2021/07/01 07:27:28;;;;;;;13.75;9.73;;;;;;;35.35;40.71;96089.97;5114078;28;20038;-64
2021/07/01 07:29:54;;;;;;;14.18;9.93;;;;;;;35.52;39.63;96094.78;5113888;28;20073;-65
2021/07/01 07:32:23;;;;;;;11.45;9.32;;;;;;;35.67;39.96;96091.66;5113625;28;20074;-65
2021/07/01 07:34:50;;;;;;;12.00;9.20;;;;;;;35.76;39.41;96092.19;5113788;28;20073;-67
2021/07/01 07:37:16;;;;;;;18.40;10.30;;;;;;;35.95;40.17;96089.41;5113773;28;20108;-67
2021/07/01 07:39:44;;;;;;;16.35;9.40;;;;;;;36.00;39.71;96090.38;5095501;28;20027;-63
2021/07/01 07:42:11;;;;;;;20.70;9.32;;;;;;;36.09;40.32;96081.88;5113803;28;20031;-64
2021/07/01 07:44:39;;;;;;;18.85;9.45;;;;;;;36.32;39.64;96091.19;5113808;28;20112;-67
2021/07/01 07:47:05;;;;;;;12.95;9.48;;;;;;;36.29;39.78;96097.91;5113615;28;20034;-66
2021/07/01 07:49:31;;;;;;;15.50;10.43;;;;;;;36.16;39.38;96091.63;5113666;28;20011;-68
2021/07/01 07:52:03;;;;;;;17.73;10.18;;;;;;;35.69;39.18;96088.75;5113893;28;20428;-69
2021/07/01 07:54:32;;;;;;;15.30;10.13;;;;;;;35.71;39.79;96094.78;5113648;28;20024;-65
2021/07/01 07:57:00;;;;;;;16.33;9.88;;;;;;;35.71;40.41;96089.34;5113521;28;20488;-67
2021/07/01 07:59:29;;;;;;;15.35;9.70;;;;;;;35.54;41.06;96093.50;5113448;28;20027;-67
2021/07/01 08:02:00;;;;;;;14.35;10.27;;;;;;;35.46;40.96;96090.25;5113441;28;20494;-63
2021/07/01 08:04:28;;;;;;;10.13;8.90;;;;;;;35.72;39.96;96093.72;5113515;28;20366;-68
2021/07/01 08:06:54;;;;;;;13.18;9.10;;;;;;;35.95;40.93;96092.97;5113119;28;20499;-62
2021/07/01 08:09:25;;;;;;;15.90;9.63;;;;;;;35.98;40.30;96089.78;5113522;28;20438;-64
2021/07/01 08:11:54;;;;;;;18.02;8.57;;;;;;;35.74;37.92;96095.16;5113372;28;20468;-67
2021/07/01 08:14:21;;;;;;;10.52;8.80;;;;;;;35.71;41.47;96095.59;5113407;28;20038;-64
2021/07/01 08:16:47;;;;;;;15.82;8.95;;;;;;;35.85;40.87;96092.69;5113286;28;20073;-68
2021/07/01 08:19:13;;;;;;;21.25;8.68;;;;;;;35.99;38.43;96093.34;5113311;28;20023;-63
2021/07/01 08:21:38;;;;;;;14.35;9.40;;;;;;;35.96;39.27;96096.53;5113226;28;20107;-64
2021/07/01 08:24:05;;;;;;;12.18;8.48;;;;;;;35.77;40.09;96085.69;5113353;28;20048;-64
2021/07/01 08:26:31;;;;;;;14.43;8.10;;;;;;;35.92;38.14;96090.72;5113214;28;20031;-67
2021/07/01 08:28:57;;;;;;;9.50;8.23;;;;;;;35.94;36.77;96085.03;5113283;28;20031;-65
2021/07/01 08:31:23;;;;;;;12.77;8.30;;;;;;;36.02;39.06;96085.53;5113259;28;20059;-61
2021/07/01 08:33:50;;;;;;;11.48;8.30;;;;;;;35.96;37.41;96086.47;5113252;28;20047;-62
2021/07/01 08:36:17;;;;;;;11.50;7.80;;;;;;;35.83;39.89;96089.38;5113043;28;20032;-66
2021/07/01 08:38:43;;;;;;;15.88;8.60;;;;;;;35.76;38.72;96092.19;5113157;28;20028;-63
2021/07/01 08:41:13;;;;;;;11.43;8.60;;;;;;;35.89;40.19;96088.44;5113337;28;20027;-65
2021/07/01 08:44:09;;;;;;;13.63;8.30;;;;;;;35.91;40.47;96098.03;5114716;28;20073;-66
2021/07/01 08:46:43;;;;;;;15.10;7.82;;;;;;;36.13;39.33;96096.69;5117015;28;20047;-63
2021/07/01 08:49:10;;;;;;;10.65;7.78;;;;;;;36.12;38.32;96090.41;5117003;28;20036;-67
2021/07/01 08:51:38;;;;;;;10.63;8.00;;;;;;;35.97;40.83;96093.59;5116891;28;20024;-68
2021/07/01 08:54:15;;;;;;;12.68;7.40;;;;;;;36.06;40.37;96087.78;5116857;28;20016;-68
2021/07/01 08:56:42;;;;;;;11.10;7.22;;;;;;;36.08;38.91;96088.41;5098527;28;20517;-66
2021/07/01 08:59:11;;;;;;;13.43;7.30;;;;;;;36.15;38.04;96086.41;5116771;28;20126;-66
2021/07/01 09:01:39;;;;;;;16.88;8.07;;;;;;;36.22;37.81;96087.16;5116682;28;20016;-65
2021/07/01 09:04:11;;;;;;;11.55;7.50;;;;;;;36.14;37.25;96079.28;5116745;28;20381;-65
2021/07/01 09:06:37;;;;;;;8.35;7.20;;;;;;;36.04;39.09;96072.53;5116491;28;20545;-64
2021/07/01 09:09:09;;;;;;;15.07;7.20;;;;;;;36.15;39.87;96073.59;5116604;28;20028;-63
2021/07/01 09:11:37;;;;;;;7.78;6.78;;;;;;;35.94;41.39;96075.00;5116544;28;20029;-69
2021/07/01 09:14:06;;;;;;;10.52;7.55;;;;;;;35.94;39.58;96071.44;5116370;28;20473;-68
2021/07/01 09:16:33;;;;;;;10.35;7.75;;;;;;;35.86;39.02;96076.16;5116354;28;20519;-65
2021/07/01 09:19:00;;;;;;;11.85;7.63;;;;;;;35.91;40.30;96068.13;5116381;28;20023;-66
2021/07/01 09:21:26;;;;;;;11.70;8.77;;;;;;;35.90;40.06;96071.91;5116400;28;20027;-65
2021/07/01 09:23:53;;;;;;;11.65;8.15;;;;;;;35.85;38.62;96070.94;5116190;28;20039;-69
2021/07/01 09:26:21;;;;;;;15.20;7.93;;;;;;;35.90;40.90;96063.75;5116231;28;20091;-66
2021/07/01 09:28:52;;;;;;;13.45;8.30;;;;;;;35.71;38.83;96062.16;5116094;28;20024;-65
2021/07/01 09:31:21;;;;;;;11.57;8.38;;;;;;;35.53;38.05;96061.94;5116163;28;20024;-69
2021/07/01 09:33:48;;;;;;;23.95;8.00;;;;;;;35.23;38.51;96054.59;5116157;28;20015;-65
2021/07/01 09:36:15;;;;;;;9.52;7.45;;;;;;;35.24;40.40;96060.88;5115853;28;20031;-64
2021/07/01 09:38:44;;;;;;;11.98;8.18;;;;;;;35.00;39.26;96052.56;5116003;28;20023;-65
2021/07/01 09:41:12;;;;;;;11.27;8.50;;;;;;;34.79;42.93;96052.75;5116097;28;20016;-63
2021/07/01 09:43:46;;;;;;;14.15;8.15;;;;;;;34.78;41.41;96044.84;5115996;28;20042;-61
2021/07/01 09:46:17;;;;;;;13.82;8.63;;;;;;;34.89;43.55;96048.69;5115954;28;20028;-65
2021/07/01 09:48:47;;;;;;;12.80;8.40;;;;;;;34.91;42.75;96044.69;5115893;28;20384;-64
2021/07/01 09:51:13;;;;;;;17.13;8.30;;;;;;;34.91;41.91;96033.81;5115848;28;20368;-67
2021/07/01 09:53:40;;;;;;;11.35;8.60;;;;;;;35.04;42.18;96040.97;5115708;28;20016;-65
2021/07/01 09:56:10;;;;;;;9.85;7.93;;;;;;;35.14;42.17;96037.75;5115455;28;20110;-66
2021/07/01 09:58:46;;;;;;;;;;;;;;;35.27;40.61;96042.19;5116016;28;20024;-66
2021/07/01 10:01:27;;;;;;;12.38;8.15;;;;;;;35.39;42.35;96036.81;5115553;28;20353;-63
2021/07/01 10:03:59;;;;;;;15.88;8.45;;;;;;;35.46;41.95;96031.31;5115388;28;20173;-64
2021/07/01 10:06:25;;;;;;;10.10;7.95;;;;;;;35.29;39.88;96037.38;5115418;28;20038;-67
2021/07/01 10:08:52;;;;;;;14.50;8.40;;;;;;;35.15;40.43;96027.69;5115217;28;20055;-62
2021/07/01 10:11:34;;;;;;;16.85;7.95;;;;;;;35.17;38.29;96028.31;5115390;28;20027;-62
2021/07/01 10:14:03;;;;;;;22.65;7.43;;;;;;;35.18;39.87;96026.47;5115197;28;20111;-63
2021/07/01 10:16:31;;;;;;;10.02;6.47;;;;;;;35.21;39.57;96026.00;5115157;28;20024;-62
2021/07/01 10:18:58;;;;;;;15.45;7.65;;;;;;;35.33;36.70;96023.34;5115028;28;20024;-64
2021/07/01 10:21:29;;;;;;;14.45;8.10;;;;;;;35.31;37.29;96022.72;5115119;28;20023;-64
2021/07/01 10:24:12;;;;;;;18.90;8.05;;;;;;;35.10;37.41;96016.69;5115141;28;20031;-66
2021/07/01 10:26:46;;;;;;;17.50;7.40;;;;;;;35.04;41.04;96011.09;5114899;28;20050;-63
2021/07/01 10:29:13;;;;;;;17.80;8.88;;;;;;;35.00;41.75;96011.81;5114962;28;20100;-66
2021/07/01 10:31:56;;;;;;;24.13;8.77;;;;;;;35.07;41.77;96003.56;5114941;28;20034;-68
2021/07/01 10:34:28;;;;;;;13.23;7.22;;;;;;;35.23;40.75;96008.41;5115007;28;20031;-64
2021/07/01 10:37:21;;;;;;;16.70;8.50;;;;;;;35.19;41.15;95998.22;5114731;28;20380;-63
2021/07/01 10:39:48;;;;;;;18.52;7.93;;;;;;;35.16;38.41;95994.06;5114946;28;20032;-63
2021/07/01 10:42:16;;;;;;;14.27;8.15;;;;;;;35.20;41.19;95995.28;5114717;28;20027;-64
2021/07/01 10:44:42;;;;;;;12.73;8.38;;;;;;;35.25;40.93;95990.00;5114584;28;20027;-66
2021/07/01 10:47:27;;;;;;;13.30;8.38;;;;;;;35.28;41.96;95975.94;5114593;28;20034;-68
2021/07/01 10:49:53;;;;;;;22.50;8.05;;;;;;;35.36;41.41;95979.41;5114626;28;20066;-66
2021/07/01 10:52:19;;;;;;;15.80;7.70;;;;;;;35.07;38.61;95982.69;5114527;28;20016;-67
2021/07/01 10:54:58;;;;;;;13.60;8.48;;;;;;;34.94;40.05;95974.69;5114521;28;20027;-66
2021/07/01 10:57:29;;;;;;;14.98;7.90;;;;;;;34.97;40.93;95969.63;5114419;28;20118;-63
2021/07/01 10:59:56;;;;;;;11.45;7.97;;;;;;;34.97;37.38;95968.81;5114383;28;20093;-68
2021/07/01 11:02:28;;;;;;;15.13;7.47;;;;;;;34.80;37.39;95969.44;5114241;28;20027;-69
2021/07/01 11:05:02;;;;;;;17.27;9.38;;;;;;;34.73;38.94;95964.06;5114237;28;20023;-66
2021/07/01 11:07:40;;;;;;;14.73;8.05;;;;;;;34.74;40.69;95951.31;5113437;28;20039;-63
2021/07/01 11:10:06;;;;;;;19.98;8.75;;;;;;;34.75;42.25;95951.09;5114094;28;20028;-63
2021/07/01 11:12:41;;;;;;;14.65;8.02;;;;;;;34.81;40.98;95951.22;5114117;28;20038;-64
2021/07/01 11:15:07;;;;;;;16.38;8.60;;;;;;;34.87;39.63;95942.19;5114175;28;20079;-66
2021/07/01 11:17:37;;;;;;;13.82;8.18;;;;;;;34.87;42.44;95942.19;5114095;28;20532;-65
2021/07/01 11:20:19;;;;;;;12.73;7.97;;;;;;;34.90;41.35;95939.00;5114304;28;20346;-67
2021/07/01 11:22:53;;;;;;;17.20;8.65;;;;;;;34.99;41.04;95932.22;5114024;28;20028;-67
2021/07/01 11:25:29;;;;;;;16.88;8.38;;;;;;;34.92;39.79;95934.19;5113949;28;20547;-64
2021/07/01 11:28:23;;;;;;;10.63;7.93;;;;;;;34.72;38.57;95932.53;5113883;28;20023;-63
2021/07/01 11:30:55;;;;;;;15.27;7.90;;;;;;;34.25;40.42;95925.72;5113863;28;20027;-66
2021/07/01 11:33:21;;;;;;;14.93;8.52;;;;;;;34.22;40.85;95919.94;5114066;28;20023;-63
2021/07/01 11:36:07;;;;;;;15.45;7.72;;;;;;;33.87;40.32;95913.13;5113821;28;20022;-63
2021/07/01 11:38:33;;;;;;;15.98;9.57;;;;;;;33.78;42.27;95909.88;5113855;28;20024;-65
2021/07/01 11:41:01;;;;;;;14.90;8.30;;;;;;;33.81;42.45;95906.72;5113748;28;20030;-63
2021/07/01 11:43:28;;;;;;;12.35;8.38;;;;;;;33.94;42.13;95905.75;5113647;28;20027;-67
2021/07/01 11:45:54;;;;;;;15.65;8.43;;;;;;;33.90;42.69;95899.13;5113749;28;20472;-67